Ponta Outao — CSXU9 — position and weather

sailwx.info

Track history (hours):
 
Tides and Currents Weather Stations Pressure Air Temp Water Temp Dewpoint Dewpoint Depression Visibility Wind Speed Wind Dir Waves Ship Positions

Ponta Outao

Last reported at 2018-May-17 22:51 UTC. Time now 2018-May-20 17:47 UTC.
Position N 38°30' W 008°50'.

Length 18 m.

Type: Tug. MMSI: 263601550.

Date/timePositionNaut miles runAvg speedWind from/ knotsBaromVisibWave heightAir tempDewpointWater temp
2018-May-17 22:51N 38°30' W 008°50'4 2.1
2018-May-17 20:59N 38°30' W 008°55'2 4.2
2018-May-17 20:30N 38°29' W 008°57'2 2.8
2018-May-17 19:42N 38°27' W 008°59'0 0.5
2018-May-17 19:30N 38°27' W 008°59'0 0.3
2018-May-17 19:00N 38°27' W 008°59'0 0.4
2018-May-17 18:30N 38°27' W 008°59'4 7.3
2018-May-17 17:59N 38°25' W 009°03'8 9.6
2018-May-17 17:07N 38°24' W 009°13'1 9.4
2018-May-17 17:00N 38°25' W 009°15'5 9.8
2018-May-17 16:30N 38°28' W 009°20'5 9.8
2018-May-17 16:00N 38°31' W 009°24'5 9.8
2018-May-17 15:30N 38°35' W 009°28'510.0
2018-May-17 14:59N 38°39' W 009°32'5 9.8
2018-May-17 14:30N 38°44' W 009°33'5 9.5
2018-May-17 14:00N 38°48' W 009°34'5 9.3
2018-May-17 13:30N 38°53' W 009°33'5 9.2
2018-May-17 13:01N 38°58' W 009°32'611.0
2018-May-17 12:30N 39°03' W 009°31'611.2
2018-May-17 12:00N 39°08' W 009°29'  
Track history (hours):
 
Tides and Currents Weather Stations Pressure Air Temp Water Temp Dewpoint Dewpoint Depression Visibility Wind Speed Wind Dir Waves Ship Positions

Ponta Outao

Last reported at 2018-May-17 22:51 UTC. Time now 2018-May-20 17:47 UTC.
Position N 38°30' W 008°50'.

Length 18 m.

Type: Tug. MMSI: 263601550.

Date/timePositionNaut miles runAvg speedWind from/ knotsBaromVisibWave heightAir tempDewpointWater temp
2018-May-17 22:51N 38°30' W 008°50'4 2.1
2018-May-17 20:59N 38°30' W 008°55'2 4.2
2018-May-17 20:30N 38°29' W 008°57'2 2.8
2018-May-17 19:42N 38°27' W 008°59'0 0.5
2018-May-17 19:30N 38°27' W 008°59'0 0.3
2018-May-17 19:00N 38°27' W 008°59'0 0.4
2018-May-17 18:30N 38°27' W 008°59'4 7.3
2018-May-17 17:59N 38°25' W 009°03'8 9.6
2018-May-17 17:07N 38°24' W 009°13'1 9.4
2018-May-17 17:00N 38°25' W 009°15'5 9.8
2018-May-17 16:30N 38°28' W 009°20'5 9.8
2018-May-17 16:00N 38°31' W 009°24'5 9.8
2018-May-17 15:30N 38°35' W 009°28'510.0
2018-May-17 14:59N 38°39' W 009°32'5 9.8
2018-May-17 14:30N 38°44' W 009°33'5 9.5
2018-May-17 14:00N 38°48' W 009°34'5 9.3
2018-May-17 13:30N 38°53' W 009°33'5 9.2
2018-May-17 13:01N 38°58' W 009°32'611.0
2018-May-17 12:30N 39°03' W 009°31'611.2
2018-May-17 12:00N 39°08' W 009°29'  

Dump ship's entire track history